sensor_id;sensor_type;location;lat;lon;timestamp;temperature;humidity
4896;DHT22;2463;49.948;8.472;2023-04-15T00:00:59;5.70;99.90
4896;DHT22;2463;49.948;8.472;2023-04-15T00:03:26;5.60;99.90
4896;DHT22;2463;49.948;8.472;2023-04-15T00:05:54;5.60;99.90
4896;DHT22;2463;49.948;8.472;2023-04-15T00:08:21;5.50;99.90
4896;DHT22;2463;49.948;8.472;2023-04-15T00:10:47;5.50;99.90
4896;DHT22;2463;49.948;8.472;2023-04-15T00:13:14;5.40;99.90
4896;DHT22;2463;49.948;8.472;2023-04-15T00:15:42;5.30;99.90
4896;DHT22;2463;49.948;8.472;2023-04-15T00:18:09;5.30;99.90
4896;DHT22;2463;49.948;8.472;2023-04-15T00:20:35;5.30;99.90
4896;DHT22;2463;49.948;8.472;2023-04-15T00:23:02;5.20;99.90
4896;DHT22;2463;49.948;8.472;2023-04-15T00:25:29;5.20;99.90
4896;DHT22;2463;49.948;8.472;2023-04-15T00:27:56;5.20;99.90
4896;DHT22;2463;49.948;8.472;2023-04-15T00:30:23;5.20;99.90
4896;DHT22;2463;49.948;8.472;2023-04-15T00:32:51;5.20;99.90
4896;DHT22;2463;49.948;8.472;2023-04-15T00:35:19;5.30;99.90
4896;DHT22;2463;49.948;8.472;2023-04-15T00:37:46;5.30;99.90
4896;DHT22;2463;49.948;8.472;2023-04-15T00:40:12;5.30;99.90
4896;DHT22;2463;49.948;8.472;2023-04-15T00:42:42;5.40;99.90
4896;DHT22;2463;49.948;8.472;2023-04-15T00:45:10;5.40;99.90
4896;DHT22;2463;49.948;8.472;2023-04-15T00:47:39;5.10;99.90
4896;DHT22;2463;49.948;8.472;2023-04-15T00:50:07;5.40;99.90
4896;DHT22;2463;49.948;8.472;2023-04-15T00:52:34;5.50;99.90
4896;DHT22;2463;49.948;8.472;2023-04-15T00:55:02;5.50;99.90
4896;DHT22;2463;49.948;8.472;2023-04-15T00:57:30;5.50;99.90
4896;DHT22;2463;49.948;8.472;2023-04-15T00:59:57;5.40;99.90
4896;DHT22;2463;49.948;8.472;2023-04-15T01:02:24;5.50;99.90
4896;DHT22;2463;49.948;8.472;2023-04-15T01:04:51;5.50;99.90
4896;DHT22;2463;49.948;8.472;2023-04-15T01:07:18;5.40;99.90
4896;DHT22;2463;49.948;8.472;2023-04-15T01:09:45;5.50;99.90
4896;DHT22;2463;49.948;8.472;2023-04-15T01:12:13;5.50;99.90
4896;DHT22;2463;49.948;8.472;2023-04-15T01:14:41;5.50;99.90
4896;DHT22;2463;49.948;8.472;2023-04-15T01:17:07;5.50;99.90
4896;DHT22;2463;49.948;8.472;2023-04-15T01:19:38;5.40;99.90
4896;DHT22;2463;49.948;8.472;2023-04-15T01:22:05;5.40;99.90
4896;DHT22;2463;49.948;8.472;2023-04-15T01:24:32;5.30;99.90
4896;DHT22;2463;49.948;8.472;2023-04-15T01:26:59;5.20;99.90
4896;DHT22;2463;49.948;8.472;2023-04-15T01:29:26;5.10;99.90
4896;DHT22;2463;49.948;8.472;2023-04-15T01:31:54;5.00;99.90
4896;DHT22;2463;49.948;8.472;2023-04-15T01:34:22;5.00;99.90
4896;DHT22;2463;49.948;8.472;2023-04-15T01:36:49;5.00;99.90
4896;DHT22;2463;49.948;8.472;2023-04-15T01:39:15;4.90;99.90
4896;DHT22;2463;49.948;8.472;2023-04-15T01:41:42;4.90;99.90
4896;DHT22;2463;49.948;8.472;2023-04-15T01:44:09;4.90;99.90
4896;DHT22;2463;49.948;8.472;2023-04-15T01:46:36;4.90;99.90
4896;DHT22;2463;49.948;8.472;2023-04-15T01:49:03;4.80;99.90
4896;DHT22;2463;49.948;8.472;2023-04-15T01:51:30;4.70;99.90
4896;DHT22;2463;49.948;8.472;2023-04-15T01:53:57;4.60;99.90
4896;DHT22;2463;49.948;8.472;2023-04-15T01:56:24;4.50;99.90
4896;DHT22;2463;49.948;8.472;2023-04-15T01:58:51;4.50;99.90
4896;DHT22;2463;49.948;8.472;2023-04-15T02:01:18;4.40;99.90
4896;DHT22;2463;49.948;8.472;2023-04-15T02:03:46;4.40;99.90
4896;DHT22;2463;49.948;8.472;2023-04-15T02:06:13;4.30;99.90
4896;DHT22;2463;49.948;8.472;2023-04-15T02:08:40;4.20;99.90
4896;DHT22;2463;49.948;8.472;2023-04-15T02:11:07;4.10;99.90
4896;DHT22;2463;49.948;8.472;2023-04-15T02:13:34;4.00;99.90
4896;DHT22;2463;49.948;8.472;2023-04-15T02:16:00;4.00;99.90
4896;DHT22;2463;49.948;8.472;2023-04-15T02:18:27;4.00;99.90
4896;DHT22;2463;49.948;8.472;2023-04-15T02:20:54;3.90;99.90
4896;DHT22;2463;49.948;8.472;2023-04-15T02:23:22;4.00;99.90
4896;DHT22;2463;49.948;8.472;2023-04-15T02:25:49;4.00;99.90
4896;DHT22;2463;49.948;8.472;2023-04-15T02:28:20;4.00;99.90
4896;DHT22;2463;49.948;8.472;2023-04-15T02:30:50;4.00;99.90
4896;DHT22;2463;49.948;8.472;2023-04-15T02:33:20;4.00;99.90
4896;DHT22;2463;49.948;8.472;2023-04-15T02:35:46;4.00;99.90
4896;DHT22;2463;49.948;8.472;2023-04-15T02:38:13;4.10;99.90
4896;DHT22;2463;49.948;8.472;2023-04-15T02:40:42;4.10;99.90
4896;DHT22;2463;49.948;8.472;2023-04-15T02:43:08;4.10;99.90
4896;DHT22;2463;49.948;8.472;2023-04-15T02:45:35;4.10;99.90
4896;DHT22;2463;49.948;8.472;2023-04-15T02:48:02;4.00;99.90
4896;DHT22;2463;49.948;8.472;2023-04-15T02:50:31;4.00;99.90
4896;DHT22;2463;49.948;8.472;2023-04-15T02:52:59;3.90;99.90
4896;DHT22;2463;49.948;8.472;2023-04-15T02:55:27;3.80;99.90
4896;DHT22;2463;49.948;8.472;2023-04-15T02:57:54;3.80;99.90
4896;DHT22;2463;49.948;8.472;2023-04-15T03:00:21;3.80;99.90
4896;DHT22;2463;49.948;8.472;2023-04-15T03:02:51;3.80;99.90
4896;DHT22;2463;49.948;8.472;2023-04-15T03:05:22;3.80;99.90
4896;DHT22;2463;49.948;8.472;2023-04-15T03:07:52;3.80;99.90
4896;DHT22;2463;49.948;8.472;2023-04-15T03:10:19;3.80;99.90
4896;DHT22;2463;49.948;8.472;2023-04-15T03:12:46;3.80;99.90
4896;DHT22;2463;49.948;8.472;2023-04-15T03:15:13;3.80;99.90
4896;DHT22;2463;49.948;8.472;2023-04-15T03:17:39;3.80;99.90
4896;DHT22;2463;49.948;8.472;2023-04-15T03:20:06;3.80;99.90
4896;DHT22;2463;49.948;8.472;2023-04-15T03:22:34;3.80;99.90
4896;DHT22;2463;49.948;8.472;2023-04-15T03:25:01;3.70;99.90
4896;DHT22;2463;49.948;8.472;2023-04-15T03:27:27;3.70;99.90
4896;DHT22;2463;49.948;8.472;2023-04-15T03:29:54;3.70;99.90
4896;DHT22;2463;49.948;8.472;2023-04-15T03:32:22;3.70;99.90
4896;DHT22;2463;49.948;8.472;2023-04-15T03:34:48;3.80;99.90
4896;DHT22;2463;49.948;8.472;2023-04-15T03:37:15;3.80;99.90
4896;DHT22;2463;49.948;8.472;2023-04-15T03:39:42;3.90;99.90
4896;DHT22;2463;49.948;8.472;2023-04-15T03:42:09;3.90;99.90
4896;DHT22;2463;49.948;8.472;2023-04-15T03:44:35;3.90;99.90
4896;DHT22;2463;49.948;8.472;2023-04-15T03:47:02;3.80;99.90
4896;DHT22;2463;49.948;8.472;2023-04-15T03:49:29;3.80;99.90
4896;DHT22;2463;49.948;8.472;2023-04-15T03:51:55;3.80;99.90
4896;DHT22;2463;49.948;8.472;2023-04-15T03:54:22;3.80;99.90
4896;DHT22;2463;49.948;8.472;2023-04-15T03:56:49;3.80;99.90
4896;DHT22;2463;49.948;8.472;2023-04-15T03:59:16;3.80;99.90
4896;DHT22;2463;49.948;8.472;2023-04-15T04:01:42;3.70;99.90
4896;DHT22;2463;49.948;8.472;2023-04-15T04:04:09;3.60;99.90
4896;DHT22;2463;49.948;8.472;2023-04-15T04:06:36;3.60;99.90
4896;DHT22;2463;49.948;8.472;2023-04-15T04:09:03;3.60;99.90
4896;DHT22;2463;49.948;8.472;2023-04-15T04:11:29;3.60;99.90
4896;DHT22;2463;49.948;8.472;2023-04-15T04:13:57;3.60;99.90
4896;DHT22;2463;49.948;8.472;2023-04-15T04:16:23;3.70;99.90
4896;DHT22;2463;49.948;8.472;2023-04-15T04:18:51;3.60;99.90
4896;DHT22;2463;49.948;8.472;2023-04-15T04:21:17;3.70;99.90
4896;DHT22;2463;49.948;8.472;2023-04-15T04:23:44;3.70;99.90
4896;DHT22;2463;49.948;8.472;2023-04-15T04:26:11;3.80;99.90
4896;DHT22;2463;49.948;8.472;2023-04-15T04:28:37;3.80;99.90
4896;DHT22;2463;49.948;8.472;2023-04-15T04:31:07;3.80;99.90
4896;DHT22;2463;49.948;8.472;2023-04-15T04:33:33;3.90;99.90
4896;DHT22;2463;49.948;8.472;2023-04-15T04:36:00;3.80;99.90
4896;DHT22;2463;49.948;8.472;2023-04-15T04:38:27;3.80;99.90
4896;DHT22;2463;49.948;8.472;2023-04-15T04:40:54;3.90;99.90
4896;DHT22;2463;49.948;8.472;2023-04-15T04:43:20;3.90;99.90
4896;DHT22;2463;49.948;8.472;2023-04-15T04:45:47;3.90;99.90
4896;DHT22;2463;49.948;8.472;2023-04-15T04:48:14;3.90;99.90
4896;DHT22;2463;49.948;8.472;2023-04-15T04:50:40;3.80;99.90
4896;DHT22;2463;49.948;8.472;2023-04-15T04:53:07;3.80;99.90
4896;DHT22;2463;49.948;8.472;2023-04-15T04:55:34;3.70;99.90
4896;DHT22;2463;49.948;8.472;2023-04-15T04:58:02;3.70;99.90
4896;DHT22;2463;49.948;8.472;2023-04-15T05:00:29;3.70;99.90
4896;DHT22;2463;49.948;8.472;2023-04-15T05:02:55;3.80;99.90
4896;DHT22;2463;49.948;8.472;2023-04-15T05:05:22;3.80;99.90
4896;DHT22;2463;49.948;8.472;2023-04-15T05:07:49;3.80;99.90
4896;DHT22;2463;49.948;8.472;2023-04-15T05:10:16;3.90;99.90
4896;DHT22;2463;49.948;8.472;2023-04-15T05:12:43;3.90;99.90
4896;DHT22;2463;49.948;8.472;2023-04-15T05:15:10;4.00;99.90
4896;DHT22;2463;49.948;8.472;2023-04-15T05:17:37;4.00;99.90
4896;DHT22;2463;49.948;8.472;2023-04-15T05:20:04;4.00;99.90
4896;DHT22;2463;49.948;8.472;2023-04-15T05:22:31;4.00;99.90
4896;DHT22;2463;49.948;8.472;2023-04-15T05:24:58;3.90;99.90
4896;DHT22;2463;49.948;8.472;2023-04-15T05:27:25;4.00;99.90
4896;DHT22;2463;49.948;8.472;2023-04-15T05:29:52;4.00;99.90
4896;DHT22;2463;49.948;8.472;2023-04-15T05:32:18;4.00;99.90
4896;DHT22;2463;49.948;8.472;2023-04-15T05:34:45;4.00;99.90
4896;DHT22;2463;49.948;8.472;2023-04-15T05:37:13;4.00;99.90
4896;DHT22;2463;49.948;8.472;2023-04-15T05:39:39;4.10;99.90
4896;DHT22;2463;49.948;8.472;2023-04-15T05:42:06;4.10;99.90
4896;DHT22;2463;49.948;8.472;2023-04-15T05:44:33;4.10;99.90
4896;DHT22;2463;49.948;8.472;2023-04-15T05:46:59;4.10;99.90
4896;DHT22;2463;49.948;8.472;2023-04-15T05:49:26;4.10;99.90
4896;DHT22;2463;49.948;8.472;2023-04-15T05:51:53;4.00;99.90
4896;DHT22;2463;49.948;8.472;2023-04-15T05:54:19;4.10;99.90
4896;DHT22;2463;49.948;8.472;2023-04-15T05:56:48;4.20;99.90
4896;DHT22;2463;49.948;8.472;2023-04-15T05:59:15;4.20;99.90
4896;DHT22;2463;49.948;8.472;2023-04-15T06:01:42;4.30;99.90
4896;DHT22;2463;49.948;8.472;2023-04-15T06:04:09;4.40;99.90
4896;DHT22;2463;49.948;8.472;2023-04-15T06:06:37;4.50;99.90
4896;DHT22;2463;49.948;8.472;2023-04-15T06:09:04;4.60;99.90
4896;DHT22;2463;49.948;8.472;2023-04-15T06:11:30;4.70;99.90
4896;DHT22;2463;49.948;8.472;2023-04-15T06:13:57;4.90;99.90
4896;DHT22;2463;49.948;8.472;2023-04-15T06:16:24;5.00;99.90
4896;DHT22;2463;49.948;8.472;2023-04-15T06:18:50;5.20;99.90
4896;DHT22;2463;49.948;8.472;2023-04-15T06:21:17;5.40;99.90
4896;DHT22;2463;49.948;8.472;2023-04-15T06:23:44;5.60;99.90
4896;DHT22;2463;49.948;8.472;2023-04-15T06:26:11;5.80;99.90
4896;DHT22;2463;49.948;8.472;2023-04-15T06:28:37;6.10;99.90
4896;DHT22;2463;49.948;8.472;2023-04-15T06:31:04;6.40;99.90
4896;DHT22;2463;49.948;8.472;2023-04-15T06:33:31;6.60;99.90
4896;DHT22;2463;49.948;8.472;2023-04-15T06:35:58;6.90;99.90
4896;DHT22;2463;49.948;8.472;2023-04-15T06:38:24;7.30;99.90
4896;DHT22;2463;49.948;8.472;2023-04-15T06:40:51;7.80;99.90
4896;DHT22;2463;49.948;8.472;2023-04-15T06:43:18;8.40;99.90
4896;DHT22;2463;49.948;8.472;2023-04-15T06:45:45;9.10;99.90
4896;DHT22;2463;49.948;8.472;2023-04-15T06:48:12;9.70;99.90
4896;DHT22;2463;49.948;8.472;2023-04-15T06:50:39;10.50;99.90
4896;DHT22;2463;49.948;8.472;2023-04-15T06:53:06;11.20;99.90
4896;DHT22;2463;49.948;8.472;2023-04-15T06:55:33;11.70;99.90
4896;DHT22;2463;49.948;8.472;2023-04-15T06:57:59;12.20;99.90
4896;DHT22;2463;49.948;8.472;2023-04-15T07:00:26;12.60;99.90
4896;DHT22;2463;49.948;8.472;2023-04-15T07:02:54;13.10;99.90
4896;DHT22;2463;49.948;8.472;2023-04-15T07:05:21;13.70;99.90
4896;DHT22;2463;49.948;8.472;2023-04-15T07:07:48;14.90;99.90
4896;DHT22;2463;49.948;8.472;2023-04-15T07:10:14;16.40;99.90
4896;DHT22;2463;49.948;8.472;2023-04-15T07:12:41;18.00;99.90
4896;DHT22;2463;49.948;8.472;2023-04-15T07:15:08;19.30;99.90
4896;DHT22;2463;49.948;8.472;2023-04-15T07:17:35;20.50;99.90
4896;DHT22;2463;49.948;8.472;2023-04-15T07:20:02;20.80;98.10
4896;DHT22;2463;49.948;8.472;2023-04-15T07:22:30;20.80;96.60
4896;DHT22;2463;49.948;8.472;2023-04-15T07:24:57;20.80;95.10
4896;DHT22;2463;49.948;8.472;2023-04-15T07:27:23;20.80;95.80
4896;DHT22;2463;49.948;8.472;2023-04-15T07:29:50;20.80;95.60
4896;DHT22;2463;49.948;8.472;2023-04-15T07:32:18;21.10;94.10
4896;DHT22;2463;49.948;8.472;2023-04-15T07:34:45;21.30;93.10
4896;DHT22;2463;49.948;8.472;2023-04-15T07:37:11;21.20;90.80
4896;DHT22;2463;49.948;8.472;2023-04-15T07:39:39;21.20;93.00
4896;DHT22;2463;49.948;8.472;2023-04-15T07:42:05;21.40;93.00
4896;DHT22;2463;49.948;8.472;2023-04-15T07:44:32;21.40;92.40
4896;DHT22;2463;49.948;8.472;2023-04-15T07:46:59;21.50;92.10
4896;DHT22;2463;49.948;8.472;2023-04-15T07:49:25;21.60;92.20
4896;DHT22;2463;49.948;8.472;2023-04-15T07:51:52;22.10;92.40
4896;DHT22;2463;49.948;8.472;2023-04-15T07:54:19;22.30;91.00
4896;DHT22;2463;49.948;8.472;2023-04-15T07:56:46;22.70;92.70
4896;DHT22;2463;49.948;8.472;2023-04-15T07:59:13;23.20;92.30
4896;DHT22;2463;49.948;8.472;2023-04-15T08:01:43;23.50;92.00
4896;DHT22;2463;49.948;8.472;2023-04-15T08:04:10;23.70;91.30
4896;DHT22;2463;49.948;8.472;2023-04-15T08:06:37;23.90;90.80
4896;DHT22;2463;49.948;8.472;2023-04-15T08:09:05;24.10;90.50
4896;DHT22;2463;49.948;8.472;2023-04-15T08:11:32;24.10;87.40
4896;DHT22;2463;49.948;8.472;2023-04-15T08:13:59;23.90;87.30
4896;DHT22;2463;49.948;8.472;2023-04-15T08:16:26;23.80;87.90
4896;DHT22;2463;49.948;8.472;2023-04-15T08:18:56;23.80;87.40
4896;DHT22;2463;49.948;8.472;2023-04-15T08:21:23;23.60;86.70
4896;DHT22;2463;49.948;8.472;2023-04-15T08:23:51;23.30;86.20
4896;DHT22;2463;49.948;8.472;2023-04-15T08:26:19;23.10;87.70
4896;DHT22;2463;49.948;8.472;2023-04-15T08:28:47;23.20;88.50
4896;DHT22;2463;49.948;8.472;2023-04-15T08:31:15;23.30;88.40
4896;DHT22;2463;49.948;8.472;2023-04-15T08:33:42;23.30;86.30
4896;DHT22;2463;49.948;8.472;2023-04-15T08:36:09;23.50;87.70
4896;DHT22;2463;49.948;8.472;2023-04-15T08:38:36;23.30;87.40
4896;DHT22;2463;49.948;8.472;2023-04-15T08:41:07;23.50;86.80
4896;DHT22;2463;49.948;8.472;2023-04-15T08:43:42;23.60;87.40
4896;DHT22;2463;49.948;8.472;2023-04-15T08:46:12;23.70;86.80
4896;DHT22;2463;49.948;8.472;2023-04-15T08:48:39;23.70;85.70
4896;DHT22;2463;49.948;8.472;2023-04-15T08:51:07;23.60;85.90
4896;DHT22;2463;49.948;8.472;2023-04-15T08:53:35;23.60;82.90
4896;DHT22;2463;49.948;8.472;2023-04-15T08:56:06;23.60;85.10
4896;DHT22;2463;49.948;8.472;2023-04-15T08:58:35;23.70;84.10
4896;DHT22;2463;49.948;8.472;2023-04-15T09:01:01;23.70;83.20
4896;DHT22;2463;49.948;8.472;2023-04-15T09:03:29;23.70;84.10
4896;DHT22;2463;49.948;8.472;2023-04-15T09:05:56;23.60;81.10
4896;DHT22;2463;49.948;8.472;2023-04-15T09:08:22;23.50;79.80
4896;DHT22;2463;49.948;8.472;2023-04-15T09:10:49;23.50;81.80
4896;DHT22;2463;49.948;8.472;2023-04-15T09:13:17;23.40;79.00
4896;DHT22;2463;49.948;8.472;2023-04-15T09:15:44;23.20;77.60
4896;DHT22;2463;49.948;8.472;2023-04-15T09:18:11;22.90;79.60
4896;DHT22;2463;49.948;8.472;2023-04-15T09:20:42;22.80;78.50
4896;DHT22;2463;49.948;8.472;2023-04-15T09:23:12;22.60;78.20
4896;DHT22;2463;49.948;8.472;2023-04-15T09:25:40;22.40;78.80
4896;DHT22;2463;49.948;8.472;2023-04-15T09:28:10;22.00;78.90
4896;DHT22;2463;49.948;8.472;2023-04-15T09:30:36;21.70;79.60
4896;DHT22;2463;49.948;8.472;2023-04-15T09:33:04;21.40;79.70
4896;DHT22;2463;49.948;8.472;2023-04-15T09:35:34;21.00;77.10
4896;DHT22;2463;49.948;8.472;2023-04-15T09:38:07;20.60;79.90
4896;DHT22;2463;49.948;8.472;2023-04-15T09:40:38;20.50;80.80
4896;DHT22;2463;49.948;8.472;2023-04-15T09:43:06;20.50;79.00
4896;DHT22;2463;49.948;8.472;2023-04-15T09:45:36;20.40;82.70
4896;DHT22;2463;49.948;8.472;2023-04-15T09:50:41;20.90;76.90
4896;DHT22;2463;49.948;8.472;2023-04-15T09:53:10;21.10;77.90
4896;DHT22;2463;49.948;8.472;2023-04-15T09:55:44;21.20;77.50
4896;DHT22;2463;49.948;8.472;2023-04-15T09:58:26;21.40;76.70
4896;DHT22;2463;49.948;8.472;2023-04-15T10:00:54;21.60;79.50
4896;DHT22;2463;49.948;8.472;2023-04-15T10:03:26;21.60;76.10
4896;DHT22;2463;49.948;8.472;2023-04-15T10:05:55;21.60;77.50
4896;DHT22;2463;49.948;8.472;2023-04-15T10:08:25;21.50;78.70
4896;DHT22;2463;49.948;8.472;2023-04-15T10:10:53;21.40;79.60
4896;DHT22;2463;49.948;8.472;2023-04-15T10:13:22;21.50;79.00
4896;DHT22;2463;49.948;8.472;2023-04-15T10:16:00;21.40;77.70
4896;DHT22;2463;49.948;8.472;2023-04-15T10:18:31;21.40;77.90
4896;DHT22;2463;49.948;8.472;2023-04-15T10:21:00;21.30;77.40
4896;DHT22;2463;49.948;8.472;2023-04-15T10:23:27;21.10;76.20
4896;DHT22;2463;49.948;8.472;2023-04-15T10:25:54;21.00;78.30
4896;DHT22;2463;49.948;8.472;2023-04-15T10:28:21;20.80;79.40
4896;DHT22;2463;49.948;8.472;2023-04-15T10:30:48;20.70;78.80
4896;DHT22;2463;49.948;8.472;2023-04-15T10:33:24;20.60;76.00
4896;DHT22;2463;49.948;8.472;2023-04-15T10:35:53;20.40;75.50
4896;DHT22;2463;49.948;8.472;2023-04-15T10:38:44;20.10;76.60
4896;DHT22;2463;49.948;8.472;2023-04-15T10:41:18;19.90;75.10
4896;DHT22;2463;49.948;8.472;2023-04-15T10:43:48;19.70;75.20
4896;DHT22;2463;49.948;8.472;2023-04-15T10:47:03;19.60;75.40
4896;DHT22;2463;49.948;8.472;2023-04-15T10:49:13;19.60;76.60
4896;DHT22;2463;49.948;8.472;2023-04-15T10:51:42;19.40;75.50
4896;DHT22;2463;49.948;8.472;2023-04-15T10:54:14;19.40;75.50
4896;DHT22;2463;49.948;8.472;2023-04-15T10:56:43;19.30;74.60
4896;DHT22;2463;49.948;8.472;2023-04-15T10:59:10;19.00;75.30
4896;DHT22;2463;49.948;8.472;2023-04-15T11:01:57;19.00;76.60
4896;DHT22;2463;49.948;8.472;2023-04-15T11:04:54;18.90;80.80
4896;DHT22;2463;49.948;8.472;2023-04-15T11:12:53;18.60;84.00
4896;DHT22;2463;49.948;8.472;2023-04-15T11:15:26;18.70;83.30
4896;DHT22;2463;49.948;8.472;2023-04-15T11:17:58;18.80;84.00
4896;DHT22;2463;49.948;8.472;2023-04-15T11:20:33;18.80;78.90
4896;DHT22;2463;49.948;8.472;2023-04-15T11:23:00;18.70;79.50
4896;DHT22;2463;49.948;8.472;2023-04-15T11:25:40;18.80;81.40
4896;DHT22;2463;49.948;8.472;2023-04-15T11:28:07;18.90;83.10
4896;DHT22;2463;49.948;8.472;2023-04-15T11:30:35;19.00;81.40
4896;DHT22;2463;49.948;8.472;2023-04-15T11:33:04;19.20;80.50
4896;DHT22;2463;49.948;8.472;2023-04-15T11:35:31;19.40;79.70
4896;DHT22;2463;49.948;8.472;2023-04-15T11:38:02;19.70;77.80
4896;DHT22;2463;49.948;8.472;2023-04-15T11:40:29;20.10;77.30
4896;DHT22;2463;49.948;8.472;2023-04-15T11:43:03;20.50;75.20
4896;DHT22;2463;49.948;8.472;2023-04-15T11:45:30;20.80;71.30
4896;DHT22;2463;49.948;8.472;2023-04-15T11:48:08;20.80;72.20
4896;DHT22;2463;49.948;8.472;2023-04-15T11:50:36;20.90;74.10
4896;DHT22;2463;49.948;8.472;2023-04-15T11:53:11;21.10;73.20
4896;DHT22;2463;49.948;8.472;2023-04-15T11:55:49;21.40;71.10
4896;DHT22;2463;49.948;8.472;2023-04-15T11:58:24;21.40;70.00
4896;DHT22;2463;49.948;8.472;2023-04-15T12:00:59;21.50;71.30
4896;DHT22;2463;49.948;8.472;2023-04-15T12:03:27;21.40;70.40
4896;DHT22;2463;49.948;8.472;2023-04-15T12:08:59;21.00;72.30
4896;DHT22;2463;49.948;8.472;2023-04-15T12:13:57;20.50;71.90
4896;DHT22;2463;49.948;8.472;2023-04-15T12:16:24;20.10;74.40
4896;DHT22;2463;49.948;8.472;2023-04-15T12:18:55;19.70;74.00
4896;DHT22;2463;49.948;8.472;2023-04-15T12:21:24;19.10;75.60
4896;DHT22;2463;49.948;8.472;2023-04-15T12:23:55;18.60;78.20
4896;DHT22;2463;49.948;8.472;2023-04-15T12:26:52;18.20;78.90
4896;DHT22;2463;49.948;8.472;2023-04-15T12:29:23;18.00;82.00
4896;DHT22;2463;49.948;8.472;2023-04-15T12:31:55;17.90;83.70
4896;DHT22;2463;49.948;8.472;2023-04-15T12:34:30;17.80;88.00
4896;DHT22;2463;49.948;8.472;2023-04-15T12:36:59;17.80;90.10
4896;DHT22;2463;49.948;8.472;2023-04-15T12:39:28;17.70;91.90
4896;DHT22;2463;49.948;8.472;2023-04-15T12:41:56;17.50;94.30
4896;DHT22;2463;49.948;8.472;2023-04-15T12:44:23;17.50;97.50
4896;DHT22;2463;49.948;8.472;2023-04-15T12:46:50;17.50;98.00
4896;DHT22;2463;49.948;8.472;2023-04-15T12:49:22;17.50;97.90
4896;DHT22;2463;49.948;8.472;2023-04-15T12:51:51;17.40;98.30
4896;DHT22;2463;49.948;8.472;2023-04-15T12:54:19;17.40;99.90
4896;DHT22;2463;49.948;8.472;2023-04-15T12:56:47;17.40;99.90
4896;DHT22;2463;49.948;8.472;2023-04-15T12:59:15;17.50;99.90
4896;DHT22;2463;49.948;8.472;2023-04-15T13:01:45;17.70;99.90
4896;DHT22;2463;49.948;8.472;2023-04-15T13:04:13;17.80;99.70
4896;DHT22;2463;49.948;8.472;2023-04-15T13:06:40;17.90;99.90
4896;DHT22;2463;49.948;8.472;2023-04-15T13:09:07;17.70;98.50
4896;DHT22;2463;49.948;8.472;2023-04-15T13:11:34;17.70;99.90
4896;DHT22;2463;49.948;8.472;2023-04-15T13:14:03;17.50;99.30
4896;DHT22;2463;49.948;8.472;2023-04-15T13:16:31;17.30;99.70
4896;DHT22;2463;49.948;8.472;2023-04-15T13:18:59;17.10;99.90
4896;DHT22;2463;49.948;8.472;2023-04-15T13:21:26;16.90;99.90
4896;DHT22;2463;49.948;8.472;2023-04-15T13:23:53;16.70;99.90
4896;DHT22;2463;49.948;8.472;2023-04-15T13:26:20;16.60;99.90
4896;DHT22;2463;49.948;8.472;2023-04-15T13:28:47;16.40;99.90
4896;DHT22;2463;49.948;8.472;2023-04-15T13:31:14;16.20;99.90
4896;DHT22;2463;49.948;8.472;2023-04-15T13:33:41;16.10;99.90
4896;DHT22;2463;49.948;8.472;2023-04-15T13:36:08;16.00;99.90
4896;DHT22;2463;49.948;8.472;2023-04-15T13:38:35;15.90;99.90
4896;DHT22;2463;49.948;8.472;2023-04-15T13:41:01;15.70;99.90
4896;DHT22;2463;49.948;8.472;2023-04-15T13:43:28;15.50;99.90
4896;DHT22;2463;49.948;8.472;2023-04-15T13:45:55;15.40;99.90
4896;DHT22;2463;49.948;8.472;2023-04-15T13:48:22;15.10;99.90
4896;DHT22;2463;49.948;8.472;2023-04-15T13:50:49;15.00;99.90
4896;DHT22;2463;49.948;8.472;2023-04-15T13:53:16;15.00;99.90
4896;DHT22;2463;49.948;8.472;2023-04-15T13:55:42;14.90;99.90
4896;DHT22;2463;49.948;8.472;2023-04-15T13:58:10;14.90;99.90
4896;DHT22;2463;49.948;8.472;2023-04-15T14:00:36;14.90;99.90
4896;DHT22;2463;49.948;8.472;2023-04-15T14:03:03;14.80;99.90
4896;DHT22;2463;49.948;8.472;2023-04-15T14:05:31;14.90;99.90
4896;DHT22;2463;49.948;8.472;2023-04-15T14:07:58;15.00;99.90
4896;DHT22;2463;49.948;8.472;2023-04-15T14:10:25;15.10;99.90
4896;DHT22;2463;49.948;8.472;2023-04-15T14:12:52;15.00;99.90
4896;DHT22;2463;49.948;8.472;2023-04-15T14:15:20;14.90;99.90
4896;DHT22;2463;49.948;8.472;2023-04-15T14:17:46;15.00;99.90
4896;DHT22;2463;49.948;8.472;2023-04-15T14:20:13;14.80;99.90
4896;DHT22;2463;49.948;8.472;2023-04-15T14:22:42;14.80;99.90
4896;DHT22;2463;49.948;8.472;2023-04-15T14:25:09;14.70;99.90
4896;DHT22;2463;49.948;8.472;2023-04-15T14:27:42;14.60;99.90
4896;DHT22;2463;49.948;8.472;2023-04-15T14:30:10;14.60;99.90
4896;DHT22;2463;49.948;8.472;2023-04-15T14:32:36;14.60;99.90
4896;DHT22;2463;49.948;8.472;2023-04-15T14:35:03;14.60;99.90
4896;DHT22;2463;49.948;8.472;2023-04-15T14:37:30;14.50;99.90
4896;DHT22;2463;49.948;8.472;2023-04-15T14:39:57;14.40;99.90
4896;DHT22;2463;49.948;8.472;2023-04-15T14:42:24;14.30;99.90
4896;DHT22;2463;49.948;8.472;2023-04-15T14:44:51;14.10;99.90
4896;DHT22;2463;49.948;8.472;2023-04-15T14:47:18;14.00;99.90
4896;DHT22;2463;49.948;8.472;2023-04-15T14:49:44;13.80;99.90
4896;DHT22;2463;49.948;8.472;2023-04-15T14:52:11;13.50;99.90
4896;DHT22;2463;49.948;8.472;2023-04-15T14:54:38;13.40;99.90
4896;DHT22;2463;49.948;8.472;2023-04-15T14:57:04;13.30;99.90
4896;DHT22;2463;49.948;8.472;2023-04-15T14:59:31;13.00;99.90
4896;DHT22;2463;49.948;8.472;2023-04-15T15:01:58;13.00;99.90
4896;DHT22;2463;49.948;8.472;2023-04-15T15:04:25;12.80;99.90
4896;DHT22;2463;49.948;8.472;2023-04-15T15:06:52;12.80;99.90
4896;DHT22;2463;49.948;8.472;2023-04-15T15:09:18;12.80;99.90
4896;DHT22;2463;49.948;8.472;2023-04-15T15:11:45;12.70;99.90
4896;DHT22;2463;49.948;8.472;2023-04-15T15:14:12;12.60;99.90
4896;DHT22;2463;49.948;8.472;2023-04-15T15:16:38;12.60;99.90
4896;DHT22;2463;49.948;8.472;2023-04-15T15:19:05;12.50;99.90
4896;DHT22;2463;49.948;8.472;2023-04-15T15:21:33;12.40;99.90
4896;DHT22;2463;49.948;8.472;2023-04-15T15:24:00;12.40;99.90
4896;DHT22;2463;49.948;8.472;2023-04-15T15:26:27;12.40;99.90
4896;DHT22;2463;49.948;8.472;2023-04-15T15:28:54;12.40;99.90
4896;DHT22;2463;49.948;8.472;2023-04-15T15:31:21;12.50;99.90
4896;DHT22;2463;49.948;8.472;2023-04-15T15:33:47;12.60;99.90
4896;DHT22;2463;49.948;8.472;2023-04-15T15:36:15;12.60;99.90
4896;DHT22;2463;49.948;8.472;2023-04-15T15:38:41;12.70;99.90
4896;DHT22;2463;49.948;8.472;2023-04-15T15:41:08;12.70;99.90
4896;DHT22;2463;49.948;8.472;2023-04-15T15:43:35;12.70;99.90
4896;DHT22;2463;49.948;8.472;2023-04-15T15:46:02;12.60;99.90
4896;DHT22;2463;49.948;8.472;2023-04-15T15:48:29;12.50;99.90
4896;DHT22;2463;49.948;8.472;2023-04-15T15:50:55;12.60;99.90
4896;DHT22;2463;49.948;8.472;2023-04-15T15:53:22;12.60;99.90
4896;DHT22;2463;49.948;8.472;2023-04-15T15:55:51;12.50;99.90
4896;DHT22;2463;49.948;8.472;2023-04-15T15:58:19;12.50;99.90
4896;DHT22;2463;49.948;8.472;2023-04-15T16:00:46;12.50;99.90
4896;DHT22;2463;49.948;8.472;2023-04-15T16:03:14;12.40;99.90
4896;DHT22;2463;49.948;8.472;2023-04-15T16:05:41;12.50;99.90
4896;DHT22;2463;49.948;8.472;2023-04-15T16:08:07;12.50;99.90
4896;DHT22;2463;49.948;8.472;2023-04-15T16:10:34;12.40;99.90
4896;DHT22;2463;49.948;8.472;2023-04-15T16:13:01;12.30;99.90
4896;DHT22;2463;49.948;8.472;2023-04-15T16:15:28;12.30;99.90
4896;DHT22;2463;49.948;8.472;2023-04-15T16:17:55;12.30;99.90
4896;DHT22;2463;49.948;8.472;2023-04-15T16:20:22;12.20;99.90
4896;DHT22;2463;49.948;8.472;2023-04-15T16:22:49;12.20;99.90
4896;DHT22;2463;49.948;8.472;2023-04-15T16:25:15;12.10;99.90
4896;DHT22;2463;49.948;8.472;2023-04-15T16:27:42;12.00;99.90